Time;durP1;ratioP1;P1;durP2;ratioP2;P2;SDS_P1;SDS_P2;PMS_P1;PMS_P2;Temp;Humidity;BMP_temperature;BMP_pressure;BME280_temperature;BME280_humidity;BME280_pressure;Samples;Min_cycle;Max_cycle;Signal;HPM_P1;HPM_P2
2022/04/28 00:00:16;;;;;;;14.57;7.10;;;6.50;99.90;;;;;;5012145;28;20080;-72
2022/04/28 00:02:42;;;;;;;16.40;7.45;;;6.40;99.90;;;;;;5011456;28;20401;-72
2022/04/28 00:05:08;;;;;;;12.73;7.25;;;6.40;99.90;;;;;;5011987;28;20026;-72
2022/04/28 00:07:35;;;;;;;11.90;6.90;;;6.40;99.90;;;;;;5012045;28;20560;-71
2022/04/28 00:10:01;;;;;;;13.32;6.70;;;6.30;99.90;;;;;;5011176;28;20025;-72
2022/04/28 00:12:27;;;;;;;16.67;7.57;;;6.30;99.90;;;;;;5012541;28;20498;-72
2022/04/28 00:14:53;;;;;;;12.43;6.95;;;6.30;99.90;;;;;;5011840;28;20076;-72
2022/04/28 00:17:18;;;;;;;11.77;7.18;;;6.30;99.90;;;;;;5010735;28;20174;-72
2022/04/28 00:19:44;;;;;;;16.98;8.02;;;6.30;99.90;;;;;;5013923;28;20105;-72
2022/04/28 00:22:10;;;;;;;14.45;7.32;;;6.30;99.90;;;;;;5015585;28;20030;-72
2022/04/28 00:24:35;;;;;;;8.73;6.38;;;6.30;99.90;;;;;;5015213;28;20018;-72
2022/04/28 00:27:01;;;;;;;10.50;6.32;;;6.20;99.90;;;;;;5015571;28;20017;-72
2022/04/28 00:29:26;;;;;;;11.77;7.30;;;6.30;99.90;;;;;;5015478;28;20502;-72
2022/04/28 00:31:52;;;;;;;8.02;6.28;;;6.20;99.90;;;;;;5015107;28;20121;-72
2022/04/28 00:34:17;;;;;;;9.20;6.30;;;6.30;99.90;;;;;;5015646;28;20041;-72
2022/04/28 00:36:43;;;;;;;8.48;6.20;;;6.30;99.90;;;;;;5014852;28;20046;-72
2022/04/28 00:39:08;;;;;;;10.70;6.53;;;6.20;99.90;;;;;;5016080;28;20080;-72
2022/04/28 00:41:34;;;;;;;13.45;6.57;;;6.10;99.90;;;;;;5016553;28;20501;-72
2022/04/28 00:44:00;;;;;;;10.05;6.25;;;6.10;99.90;;;;;;5014142;28;20176;-73
2022/04/28 00:46:25;;;;;;;12.75;8.45;;;6.10;99.90;;;;;;5015230;28;20075;-72
2022/04/28 00:51:35;;;;;;;8.75;6.15;;;6.20;99.90;;;;;;5014616;28;20045;-72
2022/04/28 00:54:03;;;;;;;12.85;6.90;;;6.10;99.90;;;;;;5014650;28;20079;-72
2022/04/28 00:56:30;;;;;;;15.45;7.63;;;6.00;99.90;;;;;;5014908;28;20071;-72
2022/04/28 00:58:58;;;;;;;18.33;7.05;;;6.00;99.90;;;;;;5014024;28;20124;-72
2022/04/28 01:01:24;;;;;;;11.13;7.40;;;6.00;99.90;;;;;;5014739;28;20034;-72
2022/04/28 01:03:49;;;;;;;15.93;7.32;;;6.00;99.90;;;;;;5014561;28;20025;-72
2022/04/28 01:06:16;;;;;;;14.77;7.32;;;6.00;99.90;;;;;;5014065;28;20128;-71
2022/04/28 01:08:42;;;;;;;12.68;7.03;;;6.00;99.90;;;;;;5014780;28;20061;-71
2022/04/28 01:11:07;;;;;;;10.77;6.55;;;5.90;99.90;;;;;;5014445;28;20099;-71
2022/04/28 01:13:33;;;;;;;13.02;7.40;;;5.80;99.90;;;;;;5013872;28;20481;-72
2022/04/28 01:15:59;;;;;;;12.10;6.78;;;5.90;99.90;;;;;;5014178;28;20084;-71
2022/04/28 01:18:24;;;;;;;10.48;7.07;;;5.90;99.90;;;;;;5014719;28;20026;-74
2022/04/28 01:20:50;;;;;;;11.27;7.30;;;5.90;99.90;;;;;;5013695;28;20022;-72
2022/04/28 01:23:18;;;;;;;17.30;7.63;;;6.00;99.90;;;;;;5014487;28;20041;-72
2022/04/28 01:25:44;;;;;;;11.95;7.68;;;5.90;99.90;;;;;;5014507;28;20025;-71
2022/04/28 01:28:09;;;;;;;8.70;6.50;;;5.80;99.90;;;;;;5013223;28;20490;-72
2022/04/28 01:30:37;;;;;;;12.75;7.80;;;5.80;99.90;;;;;;5013612;28;20032;-72
2022/04/28 01:33:03;;;;;;;13.13;7.32;;;5.70;99.90;;;;;;5013360;28;20104;-72
2022/04/28 01:35:29;;;;;;;15.15;7.90;;;5.70;99.90;;;;;;5014114;28;20474;-71
2022/04/28 01:37:55;;;;;;;14.35;7.55;;;5.70;99.90;;;;;;5014031;28;20054;-71
2022/04/28 01:40:21;;;;;;;14.18;7.93;;;5.70;99.90;;;;;;5013323;28;20077;-71
2022/04/28 01:42:48;;;;;;;13.13;6.80;;;5.70;99.90;;;;;;5014004;28;20049;-70
2022/04/28 01:45:14;;;;;;;13.25;7.15;;;5.70;99.90;;;;;;5014061;28;20091;-71
2022/04/28 01:47:40;;;;;;;10.38;7.03;;;5.80;99.90;;;;;;5013426;28;20100;-71
2022/04/28 01:50:09;;;;;;;13.43;7.97;;;5.70;99.90;;;;;;5013825;28;20471;-71
2022/04/28 01:55:19;;;;;;;12.93;6.78;;;5.70;99.90;;;;;;5013225;28;20053;-71
2022/04/28 01:57:46;;;;;;;11.05;7.50;;;5.80;99.90;;;;;;5013812;28;20414;-72
2022/04/28 02:00:12;;;;;;;13.45;8.18;;;5.80;99.90;;;;;;5013723;28;20033;-72
2022/04/28 02:02:37;;;;;;;16.25;7.50;;;5.80;99.90;;;;;;5013165;28;20096;-72
2022/04/28 02:05:04;;;;;;;11.40;7.75;;;5.80;99.90;;;;;;5013441;28;20524;-72
2022/04/28 02:07:30;;;;;;;9.77;7.57;;;5.70;99.90;;;;;;5013547;28;20034;-72
2022/04/28 02:09:56;;;;;;;14.82;8.40;;;5.60;99.90;;;;;;5012680;28;20022;-72
2022/04/28 02:12:23;;;;;;;15.48;7.65;;;5.70;99.90;;;;;;5015901;28;20025;-72
2022/04/28 02:14:48;;;;;;;13.05;7.40;;;5.70;99.90;;;;;;5014050;28;20038;-72
2022/04/28 02:17:18;;;;;;;11.73;7.20;;;5.60;99.90;;;;;;5012912;28;20035;-72
2022/04/28 02:19:43;;;;;;;14.38;8.60;;;5.60;99.90;;;;;;5013686;28;20033;-72
2022/04/28 02:22:09;;;;;;;11.00;7.10;;;5.60;99.90;;;;;;5012384;28;20029;-72
2022/04/28 02:24:35;;;;;;;10.10;7.28;;;5.60;99.90;;;;;;5013189;28;20429;-72
2022/04/28 02:27:00;;;;;;;15.55;7.28;;;5.50;99.90;;;;;;5013234;28;20030;-72
2022/04/28 02:29:26;;;;;;;15.27;6.93;;;5.50;99.90;;;;;;5012765;28;20441;-72
2022/04/28 02:31:51;;;;;;;20.08;7.60;;;5.50;99.90;;;;;;5013052;28;20049;-72
2022/04/28 02:34:17;;;;;;;12.05;7.13;;;5.60;99.90;;;;;;5013137;28;20030;-72
2022/04/28 02:36:42;;;;;;;8.45;6.95;;;5.60;99.90;;;;;;5012458;28;20105;-72
2022/04/28 02:39:09;;;;;;;14.38;8.02;;;5.60;99.90;;;;;;5012706;28;20120;-72
2022/04/28 02:41:35;;;;;;;15.23;7.10;;;5.50;99.90;;;;;;5013033;28;20462;-72
2022/04/28 02:44:01;;;;;;;15.30;8.20;;;5.50;99.90;;;;;;5012310;28;20034;-72
2022/04/28 02:46:28;;;;;;;20.58;7.78;;;5.50;99.90;;;;;;5013307;28;20077;-72
2022/04/28 02:48:54;;;;;;;11.15;7.35;;;5.40;99.90;;;;;;5012732;28;20038;-72
2022/04/28 02:51:19;;;;;;;12.50;7.30;;;5.40;99.90;;;;;;5011616;28;20442;-71
2022/04/28 02:53:45;;;;;;;12.88;7.43;;;5.40;99.90;;;;;;5012756;28;20034;-71
2022/04/28 02:56:11;;;;;;;9.32;7.18;;;5.40;99.90;;;;;;5012369;28;20048;-72
2022/04/28 02:58:36;;;;;;;13.40;8.35;;;5.40;99.90;;;;;;5011920;28;20525;-72
2022/04/28 03:01:02;;;;;;;13.43;7.53;;;5.30;99.90;;;;;;5012415;28;20029;-71
2022/04/28 03:03:28;;;;;;;13.18;7.57;;;5.30;99.90;;;;;;5012661;28;20026;-72
2022/04/28 03:11:23;;;;;;;12.98;7.13;;;5.30;99.90;;;;;;5012192;28;20033;-72
2022/04/28 03:13:49;;;;;;;13.85;7.65;;;5.20;99.90;;;;;;5012215;28;20037;-72
2022/04/28 03:16:15;;;;;;;13.63;7.47;;;5.20;99.90;;;;;;5012688;28;20029;-71
2022/04/28 03:18:41;;;;;;;16.92;7.80;;;5.20;99.90;;;;;;5011695;28;20419;-71
2022/04/28 03:21:06;;;;;;;17.27;7.30;;;5.10;99.90;;;;;;5012425;28;20102;-71
2022/04/28 03:23:32;;;;;;;19.65;7.30;;;5.10;99.90;;;;;;5012704;28;20029;-71
2022/04/28 03:25:57;;;;;;;17.83;6.55;;;5.10;99.90;;;;;;5011540;28;20452;-71
2022/04/28 03:28:23;;;;;;;10.77;7.00;;;5.10;99.90;;;;;;5012535;28;20033;-71
2022/04/28 03:30:50;;;;;;;12.65;7.63;;;5.20;99.90;;;;;;5012069;28;20471;-71
2022/04/28 03:33:16;;;;;;;17.55;7.57;;;5.10;99.90;;;;;;5011446;28;20034;-72
2022/04/28 03:35:42;;;;;;;15.15;7.57;;;5.10;99.90;;;;;;5012314;28;20022;-71
2022/04/28 03:38:14;;;;;;;14.25;7.55;;;5.10;99.90;;;;;;5012317;28;20021;-72
2022/04/28 03:40:41;;;;;;;11.55;7.60;;;5.10;99.90;;;;;;5011552;28;20478;-71
2022/04/28 03:43:07;;;;;;;14.07;6.45;;;5.10;99.90;;;;;;5013899;28;20034;-72
2022/04/28 03:45:33;;;;;;;15.18;6.80;;;5.10;99.90;;;;;;5016057;28;20022;-72
2022/04/28 03:48:00;;;;;;;13.35;6.72;;;5.00;99.90;;;;;;5011177;28;20387;-71
2022/04/28 03:50:28;;;;;;;18.05;7.35;;;5.00;99.90;;;;;;5012574;28;20046;-71
2022/04/28 03:52:54;;;;;;;17.75;7.78;;;5.00;99.90;;;;;;5011869;28;20056;-71
2022/04/28 03:55:20;;;;;;;13.25;7.22;;;4.90;99.90;;;;;;5014503;28;20073;-71
2022/04/28 03:57:45;;;;;;;12.15;7.03;;;4.90;99.90;;;;;;5016182;28;20080;-71
2022/04/28 04:00:12;;;;;;;23.40;8.02;;;4.90;99.90;;;;;;5015734;28;20393;-71
2022/04/28 04:02:37;;;;;;;17.25;8.30;;;4.90;99.90;;;;;;5015108;28;20034;-71
2022/04/28 04:05:03;;;;;;;11.50;7.25;;;4.90;99.90;;;;;;5015736;28;20026;-71
2022/04/28 04:07:33;;;;;;;16.67;7.22;;;4.90;99.90;;;;;;5015768;28;20038;-71
2022/04/28 04:09:58;;;;;;;15.30;6.43;;;4.90;99.90;;;;;;5014690;28;20030;-72
2022/04/28 04:12:25;;;;;;;14.90;6.80;;;4.90;99.90;;;;;;5015688;28;20084;-71
2022/04/28 04:14:52;;;;;;;14.20;6.68;;;4.90;99.90;;;;;;5014407;28;20042;-72
2022/04/28 04:17:18;;;;;;;18.55;7.20;;;4.90;99.90;;;;;;5015791;28;20053;-71
2022/04/28 04:19:44;;;;;;;12.05;6.63;;;4.90;99.90;;;;;;5015636;28;20025;-72
2022/04/28 04:22:09;;;;;;;14.80;7.40;;;4.80;99.90;;;;;;5014605;28;20125;-71
2022/04/28 04:24:35;;;;;;;12.52;7.20;;;4.90;99.90;;;;;;5015391;28;20026;-71
2022/04/28 04:27:01;;;;;;;13.10;7.80;;;4.80;99.90;;;;;;5015261;28;20038;-71
2022/04/28 04:29:27;;;;;;;17.90;7.30;;;4.90;99.90;;;;;;5014700;28;20141;-70
2022/04/28 04:34:36;;;;;;;15.15;7.80;;;4.80;99.90;;;;;;5015417;28;20040;-71
2022/04/28 04:37:02;;;;;;;17.58;7.30;;;4.80;99.90;;;;;;5014669;28;20374;-72
2022/04/28 04:39:28;;;;;;;14.63;6.53;;;4.90;99.90;;;;;;5015490;28;20390;-71
2022/04/28 04:41:53;;;;;;;14.15;6.95;;;4.90;99.90;;;;;;5014842;28;20017;-71
2022/04/28 04:44:19;;;;;;;12.55;7.30;;;4.90;99.90;;;;;;5014439;28;20117;-71
2022/04/28 04:46:44;;;;;;;14.63;7.22;;;4.90;99.90;;;;;;5015399;28;20057;-72
2022/04/28 04:49:10;;;;;;;14.43;7.65;;;4.90;99.90;;;;;;5015110;28;20057;-71
2022/04/28 04:51:39;;;;;;;16.73;7.38;;;4.90;99.90;;;;;;5014425;28;20076;-72
2022/04/28 04:54:04;;;;;;;17.63;7.15;;;4.90;99.90;;;;;;5014604;28;20475;-72
2022/04/28 04:56:30;;;;;;;13.93;7.35;;;4.90;99.90;;;;;;5014783;28;20061;-71
2022/04/28 04:58:55;;;;;;;13.25;7.07;;;5.00;99.90;;;;;;5013851;28;20509;-72
2022/04/28 05:01:21;;;;;;;13.30;7.18;;;5.00;99.90;;;;;;5015061;28;20054;-72
2022/04/28 05:03:46;;;;;;;14.50;7.30;;;5.00;99.90;;;;;;5014973;28;20034;-72
2022/04/28 05:06:12;;;;;;;14.32;8.18;;;5.10;99.90;;;;;;5012815;28;20104;-72
2022/04/28 05:08:37;;;;;;;12.43;7.65;;;5.10;99.90;;;;;;5014862;28;20053;-71
2022/04/28 05:11:03;;;;;;;14.77;7.43;;;5.10;99.90;;;;;;5013548;28;20057;-72
2022/04/28 05:13:28;;;;;;;20.63;7.68;;;5.20;99.90;;;;;;5014451;28;20369;-72
2022/04/28 05:15:54;;;;;;;15.20;7.47;;;5.20;99.90;;;;;;5014322;28;20546;-72
2022/04/28 05:18:20;;;;;;;11.75;7.43;;;5.30;99.90;;;;;;5014282;28;20026;-71
2022/04/28 05:20:45;;;;;;;12.55;7.18;;;5.40;99.90;;;;;;5014455;28;20378;-71
2022/04/28 05:23:11;;;;;;;15.57;7.40;;;5.40;99.90;;;;;;5014127;28;20041;-72
2022/04/28 05:25:36;;;;;;;15.98;7.40;;;5.50;99.90;;;;;;5013635;28;20025;-72
2022/04/28 05:28:05;;;;;;;12.10;7.10;;;5.50;99.90;;;;;;5013856;28;20495;-72
2022/04/28 05:30:30;;;;;;;9.80;7.68;;;5.50;99.90;;;;;;5014227;28;20053;-71
2022/04/28 05:32:56;;;;;;;20.17;8.13;;;5.60;99.90;;;;;;5013041;28;20339;-72
2022/04/28 05:35:22;;;;;;;18.55;9.15;;;5.60;99.90;;;;;;5014213;28;20033;-72
2022/04/28 05:37:47;;;;;;;15.57;7.70;;;5.70;99.90;;;;;;5014001;28;20026;-72
2022/04/28 05:40:16;;;;;;;24.45;7.95;;;5.80;99.90;;;;;;5013275;28;20065;-72
2022/04/28 05:45:42;;;;;;;8.65;7.20;;;5.90;99.90;;;;;;5014271;28;20497;-72
2022/04/28 05:48:08;;;;;;;14.98;6.72;;;5.90;99.90;;;;;;5013014;28;20429;-71
2022/04/28 05:50:35;;;;;;;16.10;7.75;;;6.00;99.90;;;;;;5014010;28;20488;-72
2022/04/28 05:53:03;;;;;;;16.50;8.65;;;6.00;99.90;;;;;;5013386;28;20030;-71
2022/04/28 05:55:29;;;;;;;10.93;6.80;;;6.10;99.90;;;;;;5012989;28;20060;-71
2022/04/28 05:57:58;;;;;;;13.48;7.43;;;6.10;99.90;;;;;;5013532;28;20037;-71
2022/04/28 06:00:24;;;;;;;10.40;6.40;;;6.10;99.90;;;;;;5013044;28;20041;-71
2022/04/28 06:02:50;;;;;;;15.23;7.35;;;6.10;99.90;;;;;;5013381;28;20037;-71
2022/04/28 06:05:15;;;;;;;13.05;8.27;;;6.20;99.90;;;;;;5013466;28;20478;-71
2022/04/28 06:07:41;;;;;;;14.95;7.72;;;6.30;99.90;;;;;;5012825;28;20029;-72
2022/04/28 06:10:07;;;;;;;19.70;6.93;;;6.30;99.90;;;;;;5013278;28;20553;-72
2022/04/28 06:12:32;;;;;;;11.52;7.32;;;6.50;99.90;;;;;;5013448;28;20029;-71
2022/04/28 06:14:58;;;;;;;14.05;7.75;;;6.50;99.90;;;;;;5012350;28;20080;-71
2022/04/28 06:17:23;;;;;;;10.93;6.97;;;6.50;99.90;;;;;;5012927;28;20030;-72
2022/04/28 06:19:49;;;;;;;16.92;6.85;;;6.60;99.90;;;;;;5012971;28;20037;-71
2022/04/28 06:22:26;;;;;;;16.45;7.70;;;6.70;99.90;;;;;;5012467;28;20018;-72
2022/04/28 06:24:59;;;;;;;13.93;7.43;;;6.70;99.90;;;;;;5012943;28;20025;-70
2022/04/28 06:27:25;;;;;;;22.45;6.75;;;6.90;99.90;;;;;;5013426;28;20025;-72
2022/04/28 06:29:52;;;;;;;21.30;7.35;;;7.00;99.90;;;;;;5012169;28;20026;-72
2022/04/28 06:32:18;;;;;;;11.77;6.88;;;7.10;99.90;;;;;;5013218;28;20053;-72
2022/04/28 06:34:44;;;;;;;15.50;6.90;;;7.20;99.90;;;;;;5012931;28;20088;-72
2022/04/28 06:37:10;;;;;;;6.97;5.93;;;7.30;99.90;;;;;;5012244;28;20037;-72
2022/04/28 06:39:36;;;;;;;13.52;6.57;;;7.40;99.90;;;;;;5013119;28;20033;-72
2022/04/28 06:42:03;;;;;;;12.45;6.25;;;7.50;99.90;;;;;;5012652;28;20018;-72
2022/04/28 06:44:28;;;;;;;11.30;6.60;;;7.60;99.90;;;;;;5012320;28;20394;-72
2022/04/28 06:46:54;;;;;;;11.70;5.72;;;7.70;99.90;;;;;;5012612;28;20026;-72
2022/04/28 06:49:19;;;;;;;12.00;6.53;;;7.80;99.90;;;;;;5013629;28;20113;-72
2022/04/28 06:51:45;;;;;;;17.40;8.13;;;7.90;99.90;;;;;;5012461;28;20164;-72
2022/04/28 06:54:10;;;;;;;20.33;6.88;;;8.00;99.90;;;;;;5012316;28;20074;-72
2022/04/28 06:56:36;;;;;;;18.92;7.13;;;8.00;99.90;;;;;;5011966;28;20056;-72
2022/04/28 06:59:01;;;;;;;13.98;6.07;;;8.20;99.90;;;;;;5012500;28;20030;-72
2022/04/28 07:01:27;;;;;;;11.95;6.88;;;8.20;99.90;;;;;;5012583;28;20026;-72
2022/04/28 07:03:53;;;;;;;13.40;6.60;;;8.20;99.90;;;;;;5011554;28;20021;-72
2022/04/28 07:06:18;;;;;;;14.18;6.07;;;8.30;99.90;;;;;;5012835;28;20025;-72
2022/04/28 07:08:44;;;;;;;10.18;5.75;;;8.30;99.90;;;;;;5012622;28;20441;-72
2022/04/28 07:11:10;;;;;;;9.45;5.47;;;8.40;99.90;;;;;;5011858;28;20394;-71
2022/04/28 07:13:37;;;;;;;14.27;5.40;;;8.50;99.90;;;;;;5012467;28;20080;-71
2022/04/28 07:16:03;;;;;;;12.38;5.40;;;8.60;99.90;;;;;;5012180;28;20386;-71
2022/04/28 07:18:29;;;;;;;11.80;5.60;;;8.70;99.90;;;;;;5011709;28;20046;-71
2022/04/28 07:20:54;;;;;;;11.30;5.22;;;8.70;99.90;;;;;;5012004;28;20025;-71
2022/04/28 07:23:20;;;;;;;8.15;4.82;;;8.80;99.90;;;;;;5012466;28;20072;-71
2022/04/28 07:25:46;;;;;;;15.90;4.47;;;8.80;99.90;;;;;;5011818;28;20109;-73
2022/04/28 07:28:11;;;;;;;13.43;5.95;;;8.90;99.90;;;;;;5011743;28;20026;-71
2022/04/28 07:30:37;;;;;;;10.95;4.70;;;9.00;99.90;;;;;;5011008;28;20030;-71
2022/04/28 07:33:03;;;;;;;15.05;5.10;;;9.10;99.90;;;;;;5011090;28;20038;-71
2022/04/28 07:35:29;;;;;;;10.45;4.60;;;9.10;99.90;;;;;;5012410;28;20493;-71
2022/04/28 07:37:55;;;;;;;12.00;4.20;;;9.20;99.90;;;;;;5012054;28;20061;-72
2022/04/28 07:40:21;;;;;;;11.98;4.50;;;9.20;99.90;;;;;;5011329;28;20117;-71
2022/04/28 07:42:46;;;;;;;10.52;4.70;;;9.30;99.90;;;;;;5012070;28;20029;-71
2022/04/28 07:45:12;;;;;;;11.68;4.32;;;9.40;99.90;;;;;;5011866;28;20068;-71
2022/04/28 07:47:37;;;;;;;7.60;4.10;;;9.40;99.90;;;;;;5011068;28;20026;-71
2022/04/28 07:50:04;;;;;;;12.02;4.30;;;9.50;99.90;;;;;;5011700;28;20028;-72
2022/04/28 07:52:30;;;;;;;7.13;4.15;;;9.60;99.90;;;;;;5011944;28;20116;-72
2022/04/28 07:54:56;;;;;;;13.82;4.18;;;9.70;99.90;;;;;;5010744;28;20038;-71
2022/04/28 07:57:23;;;;;;;12.45;4.50;;;9.70;99.90;;;;;;5011953;28;20419;-72
2022/04/28 07:59:50;;;;;;;9.77;3.97;;;9.70;99.90;;;;;;5010940;28;20029;-72
2022/04/28 08:02:16;;;;;;;13.07;3.63;;;9.70;99.90;;;;;;5011818;28;20041;-71
2022/04/28 08:04:42;;;;;;;12.10;4.18;;;9.90;99.90;;;;;;5012163;28;20026;-72
2022/04/28 08:07:08;;;;;;;9.27;4.07;;;10.00;99.90;;;;;;5011022;28;20033;-71
2022/04/28 08:09:34;;;;;;;7.03;3.40;;;10.00;99.90;;;;;;5011863;28;20022;-72
2022/04/28 08:11:59;;;;;;;7.28;3.85;;;10.00;99.90;;;;;;5011496;28;20034;-72
2022/04/28 08:14:25;;;;;;;10.43;4.50;;;10.00;99.90;;;;;;5010971;28;20052;-72
2022/04/28 08:16:52;;;;;;;7.28;3.90;;;10.10;99.90;;;;;;5011420;28;20437;-73
2022/04/28 08:19:19;;;;;;;4.68;3.55;;;10.10;99.90;;;;;;5011953;28;20052;-71
2022/04/28 08:21:45;;;;;;;12.45;4.03;;;10.10;99.90;;;;;;5011507;28;20030;-71
2022/04/28 08:24:10;;;;;;;16.55;3.80;;;10.20;99.90;;;;;;5011513;28;20029;-71
2022/04/28 08:26:36;;;;;;;20.83;4.95;;;10.30;99.90;;;;;;5011735;28;20101;-72
2022/04/28 08:29:01;;;;;;;7.53;3.83;;;10.30;99.90;;;;;;5010619;28;20022;-72
2022/04/28 08:31:27;;;;;;;8.80;3.35;;;10.40;99.90;;;;;;5011640;28;20029;-71
2022/04/28 08:33:52;;;;;;;11.38;4.05;;;10.50;99.90;;;;;;5011447;28;20367;-72
2022/04/28 08:36:18;;;;;;;12.95;4.35;;;10.50;99.90;;;;;;5011125;28;20061;-72
2022/04/28 08:38:44;;;;;;;4.85;3.67;;;10.60;99.90;;;;;;5011801;28;20050;-72
2022/04/28 08:41:13;;;;;;;11.55;4.40;;;10.60;99.90;;;;;;5013965;28;20516;-72
2022/04/28 08:43:40;;;;;;;9.88;3.92;;;10.60;99.90;;;;;;5014439;28;20389;-72
2022/04/28 08:48:56;;;;;;;8.77;5.50;;;10.80;99.90;;;;;;5015167;28;20041;-72
2022/04/28 08:51:25;;;;;;;11.30;4.00;;;10.80;99.90;;;;;;5014944;28;20114;-72
2022/04/28 08:53:51;;;;;;;7.97;4.45;;;10.80;99.90;;;;;;5014676;28;20040;-71
2022/04/28 08:56:21;;;;;;;8.02;4.43;;;11.00;99.90;;;;;;5013891;28;20101;-71
2022/04/28 08:58:47;;;;;;;9.63;4.15;;;11.00;99.90;;;;;;5015085;28;20031;-71
2022/04/28 09:01:13;;;;;;;17.27;4.03;;;10.90;99.90;;;;;;5014814;28;20026;-71
2022/04/28 09:03:41;;;;;;;7.32;3.85;;;11.00;99.90;;;;;;5014134;28;20037;-72
2022/04/28 09:06:24;;;;;;;12.52;4.32;;;11.00;99.90;;;;;;5014427;28;20038;-72
2022/04/28 09:08:50;;;;;;;11.52;4.05;;;11.00;99.90;;;;;;5014365;28;20035;-72
2022/04/28 09:11:27;;;;;;;13.35;4.90;;;11.10;99.90;;;;;;5014012;28;20109;-73
2022/04/28 09:14:09;;;;;;;8.13;4.97;;;11.10;99.90;;;;;;5014239;28;20116;-72
2022/04/28 09:16:37;;;;;;;9.85;4.68;;;11.10;99.90;;;;;;5014685;28;20022;-72
2022/04/28 09:19:03;;;;;;;6.43;3.83;;;11.10;99.90;;;;;;5013624;28;20022;-72
2022/04/28 09:21:29;;;;;;;10.00;4.50;;;11.10;99.90;;;;;;5014491;28;20028;-72
2022/04/28 09:23:54;;;;;;;8.43;4.30;;;11.20;99.90;;;;;;5014019;28;20551;-72
2022/04/28 09:26:27;;;;;;;6.15;4.32;;;11.20;99.90;;;;;;5013719;28;20045;-71
2022/04/28 09:29:02;;;;;;;11.27;4.97;;;11.30;99.90;;;;;;5013848;28;20546;-71
2022/04/28 09:31:30;;;;;;;11.30;4.90;;;11.30;99.90;;;;;;5013631;28;20045;-72
2022/04/28 09:33:55;;;;;;;9.40;4.43;;;11.40;99.90;;;;;;5013666;28;20037;-71
2022/04/28 09:36:21;;;;;;;9.05;4.68;;;11.50;99.90;;;;;;5014193;28;20033;-72
2022/04/28 09:38:53;;;;;;;8.25;4.80;;;11.50;99.90;;;;;;5013549;28;20022;-71
2022/04/28 09:44:03;;;;;;;8.50;4.82;;;11.50;99.90;;;;;;5013940;28;20100;-72
2022/04/28 09:46:29;;;;;;;6.53;4.40;;;11.50;99.90;;;;;;5013450;28;20355;-72
2022/04/28 09:48:54;;;;;;;5.80;4.03;;;11.50;99.90;;;;;;5013906;28;20040;-71
2022/04/28 09:51:22;;;;;;;10.88;4.63;;;11.50;99.90;;;;;;5013846;28;20022;-71
2022/04/28 09:53:48;;;;;;;9.30;4.70;;;11.50;99.90;;;;;;5012960;28;20038;-71
2022/04/28 09:56:16;;;;;;;7.35;3.88;;;11.50;99.90;;;;;;5013557;28;20058;-72
2022/04/28 09:58:42;;;;;;;11.32;4.70;;;11.50;99.90;;;;;;5013606;28;20030;-73
2022/04/28 10:01:08;;;;;;;13.40;5.25;;;11.50;99.90;;;;;;5012746;28;20072;-72
2022/04/28 10:03:34;;;;;;;10.07;4.55;;;11.50;99.90;;;;;;5013701;28;20101;-72
2022/04/28 10:06:05;;;;;;;5.80;4.90;;;11.60;99.90;;;;;;5013368;28;20148;-72
2022/04/28 10:08:33;;;;;;;9.48;4.93;;;11.70;99.90;;;;;;5013035;28;20033;-72
2022/04/28 10:11:03;;;;;;;8.68;4.40;;;11.80;99.90;;;;;;5013202;28;20062;-71
2022/04/28 10:13:30;;;;;;;9.55;4.55;;;11.90;99.90;;;;;;5012621;28;20112;-72
2022/04/28 10:15:59;;;;;;;7.70;4.68;;;12.00;99.80;;;;;;5013401;28;20114;-72
2022/04/28 10:18:33;;;;;;;7.03;4.50;;;12.00;99.90;;;;;;5013616;28;20030;-73
2022/04/28 10:21:01;;;;;;;11.27;4.72;;;12.00;99.90;;;;;;5012577;28;20030;-73
2022/04/28 10:34:32;;;;;;;10.13;5.55;;;12.30;99.40;;;;;;5012405;28;20521;-71
2022/04/28 10:37:04;;;;;;;7.43;5.75;;;12.30;99.90;;;;;;5012931;28;20030;-72
2022/04/28 10:39:33;;;;;;;13.73;5.28;;;12.40;99.70;;;;;;5013171;28;20064;-72
2022/04/28 10:41:59;;;;;;;10.43;4.97;;;12.40;99.50;;;;;;5011942;28;20386;-72
2022/04/28 10:44:32;;;;;;;10.60;5.60;;;12.40;99.50;;;;;;5013016;28;20037;-71
2022/04/28 10:46:59;;;;;;;7.38;4.72;;;12.50;99.00;;;;;;5012644;28;20060;-71
2022/04/28 10:49:25;;;;;;;9.38;6.28;;;12.40;99.60;;;;;;5012243;28;20108;-71
2022/04/28 10:51:57;;;;;;;5.65;5.10;;;12.40;99.00;;;;;;5012696;28;20061;-71
2022/04/28 10:54:24;;;;;;;9.95;5.68;;;12.50;99.10;;;;;;5012839;28;20041;-72
2022/04/28 10:56:55;;;;;;;11.05;6.57;;;12.50;98.60;;;;;;5011706;28;20054;-73
2022/04/28 10:59:28;;;;;;;9.25;5.72;;;12.60;98.20;;;;;;5012752;28;20140;-71
2022/04/28 11:01:55;;;;;;;7.32;5.47;;;12.60;98.30;;;;;;5012570;28;20157;-73
2022/04/28 11:04:22;;;;;;;10.77;5.38;;;12.60;98.00;;;;;;5011192;28;20022;-71
2022/04/28 11:06:56;;;;;;;11.00;5.30;;;12.70;97.40;;;;;;5012572;28;20101;-72
2022/04/28 11:09:32;;;;;;;6.45;5.65;;;12.70;97.70;;;;;;5012581;28;20160;-71
2022/04/28 11:12:06;;;;;;;10.80;6.18;;;12.80;97.80;;;;;;5011722;28;20038;-71
2022/04/28 11:14:48;;;;;;;9.43;5.63;;;12.90;97.50;;;;;;5012584;28;20045;-72
2022/04/28 11:17:16;;;;;;;6.97;5.18;;;12.90;97.80;;;;;;5011843;28;20076;-71
2022/04/28 11:19:43;;;;;;;6.60;5.68;;;13.00;97.30;;;;;;5012098;28;20022;-72
2022/04/28 11:22:11;;;;;;;11.57;6.00;;;13.00;97.50;;;;;;5013630;28;20056;-73
2022/04/28 11:24:40;;;;;;;8.95;6.32;;;13.00;97.30;;;;;;5012022;28;20026;-72
2022/04/28 11:27:06;;;;;;;10.20;5.68;;;13.00;97.30;;;;;;5012277;28;20026;-72
2022/04/28 11:29:32;;;;;;;9.10;5.88;;;13.10;97.60;;;;;;5012394;28;20528;-71
2022/04/28 11:31:59;;;;;;;10.68;5.72;;;13.10;97.10;;;;;;5011346;28;20026;-72
2022/04/28 11:34:27;;;;;;;14.63;5.75;;;13.20;97.30;;;;;;5012256;28;20040;-72
2022/04/28 11:36:53;;;;;;;8.70;5.35;;;13.20;97.00;;;;;;5011968;28;20030;-71
2022/04/28 11:39:22;;;;;;;13.98;7.55;;;13.20;97.00;;;;;;5011500;28;20104;-71
2022/04/28 11:41:52;;;;;;;13.18;6.63;;;13.20;97.50;;;;;;5012233;28;20446;-72
2022/04/28 11:44:18;;;;;;;11.32;6.30;;;13.20;97.40;;;;;;5012202;28;20104;-71
2022/04/28 11:46:51;;;;;;;9.30;6.38;;;13.20;96.90;;;;;;5011481;28;20117;-72
2022/04/28 11:49:18;;;;;;;9.90;6.25;;;13.40;96.90;;;;;;5012350;28;20026;-72
2022/04/28 11:51:44;;;;;;;14.07;6.28;;;13.40;97.10;;;;;;5011997;28;20075;-72
2022/04/28 11:54:25;;;;;;;9.10;5.57;;;13.50;97.00;;;;;;5011065;28;20508;-72
2022/04/28 11:56:51;;;;;;;16.33;6.53;;;13.60;97.20;;;;;;5011589;28;20490;-72
2022/04/28 11:59:17;;;;;;;7.10;6.10;;;13.70;96.80;;;;;;5011450;28;20034;-72
2022/04/28 12:01:44;;;;;;;12.27;6.60;;;13.80;96.70;;;;;;5012137;28;20443;-72
2022/04/28 12:04:11;;;;;;;11.13;6.43;;;13.90;96.50;;;;;;5011712;28;20033;-72
2022/04/28 12:06:37;;;;;;;7.53;5.70;;;13.90;96.80;;;;;;5011544;28;20454;-72
2022/04/28 12:14:34;;;;;;;14.50;6.03;;;14.10;96.50;;;;;;5011529;28;20044;-72
2022/04/28 12:19:51;;;;;;;8.00;6.22;;;14.50;95.90;;;;;;5015993;28;20398;-72
2022/04/28 12:22:27;;;;;;;12.77;6.80;;;14.40;95.40;;;;;;5014810;28;20512;-72
2022/04/28 12:24:53;;;;;;;13.05;7.13;;;14.50;95.30;;;;;;5015533;28;20382;-72
2022/04/28 12:27:20;;;;;;;8.10;5.57;;;14.60;95.00;;;;;;5014897;28;20037;-72
2022/04/28 12:29:52;;;;;;;14.85;6.65;;;14.70;94.60;;;;;;5015673;28;20120;-72
2022/04/28 12:32:18;;;;;;;9.15;7.35;;;14.70;94.50;;;;;;5015506;28;20028;-72
2022/04/28 12:34:44;;;;;;;10.38;7.40;;;14.70;94.80;;;;;;5014511;28;20038;-71
2022/04/28 12:37:09;;;;;;;10.30;7.75;;;14.60;95.40;;;;;;5014880;28;20382;-72
2022/04/28 12:40:03;;;;;;;8.13;5.45;;;14.70;94.90;;;;;;5015417;28;20390;-71
2022/04/28 12:42:45;;;;;;;9.45;5.57;;;14.90;95.10;;;;;;5014701;28;20199;-71
2022/04/28 12:45:12;;;;;;;8.70;5.72;;;15.20;94.70;;;;;;5014743;28;20053;-71
2022/04/28 12:47:40;;;;;;;13.77;7.00;;;15.40;94.20;;;;;;5014843;28;20030;-71
2022/04/28 12:50:26;;;;;;;8.25;6.53;;;15.50;93.40;;;;;;5014034;28;20136;-72
2022/04/28 12:52:52;;;;;;;7.32;6.72;;;15.50;93.20;;;;;;5014687;28;20038;-71
2022/04/28 12:55:19;;;;;;;9.65;6.20;;;15.60;93.20;;;;;;5013899;28;20072;-72
2022/04/28 12:57:49;;;;;;;10.30;6.32;;;15.60;93.60;;;;;;5014894;28;20084;-72
2022/04/28 13:00:18;;;;;;;11.30;6.90;;;15.80;93.70;;;;;;5014738;28;20034;-71
2022/04/28 13:02:50;;;;;;;19.67;6.78;;;15.90;92.80;;;;;;5014366;28;20131;-72
2022/04/28 13:05:18;;;;;;;12.98;6.85;;;15.90;92.50;;;;;;5014838;28;20021;-72
2022/04/28 13:07:44;;;;;;;8.35;6.22;;;15.80;92.20;;;;;;5014853;28;20139;-71
2022/04/28 13:10:12;;;;;;;9.48;6.22;;;15.60;92.40;;;;;;5013697;28;20092;-72
2022/04/28 13:12:38;;;;;;;7.75;6.45;;;15.80;92.50;;;;;;5014501;28;20026;-71
2022/04/28 13:15:04;;;;;;;12.70;6.40;;;15.90;92.30;;;;;;5014495;28;20041;-72
2022/04/28 13:17:30;;;;;;;11.02;6.55;;;16.00;91.70;;;;;;5013623;28;20079;-72
2022/04/28 13:19:56;;;;;;;12.82;6.88;;;16.10;91.80;;;;;;5014300;28;20033;-72
2022/04/28 13:22:22;;;;;;;10.82;6.95;;;16.00;92.90;;;;;;5014527;28;20485;-72
2022/04/28 13:24:48;;;;;;;12.02;6.00;;;16.00;92.00;;;;;;5013426;28;20026;-72